Time;durP1;ratioP1;P1;durP2;ratioP2;P2;SDS_P1;SDS_P2;PMS_P1;PMS_P2;Temp;Humidity;BMP_temperature;BMP_pressure;BME280_temperature;BME280_humidity;BME280_pressure;Samples;Min_cycle;Max_cycle;Signal;HPM_P1;HPM_P2
2022/01/10 00:01:43;;;;;;;14.20;8.07;;;5.90;99.90;;;;;;5077458;28;20553;-70
2022/01/10 00:04:09;;;;;;;15.23;9.20;;;5.90;99.90;;;;;;5076840;28;20462;-70
2022/01/10 00:06:36;;;;;;;19.47;9.83;;;5.80;99.90;;;;;;5077681;28;20627;-70
2022/01/10 00:09:04;;;;;;;16.13;8.77;;;5.90;99.90;;;;;;5077085;28;20512;-70
2022/01/10 00:11:31;;;;;;;16.47;9.43;;;5.90;99.90;;;;;;5076910;28;20527;-70
2022/01/10 00:13:58;;;;;;;12.60;7.93;;;5.90;99.90;;;;;;5077111;28;20458;-70
2022/01/10 00:16:25;;;;;;;16.67;9.50;;;5.90;99.90;;;;;;5076846;28;20938;-69
2022/01/10 00:18:53;;;;;;;20.77;9.27;;;5.90;99.90;;;;;;5076890;28;20914;-69
2022/01/10 00:21:20;;;;;;;21.90;10.10;;;5.90;99.90;;;;;;5077580;28;20466;-69
2022/01/10 00:23:47;;;;;;;13.10;9.10;;;5.90;99.90;;;;;;5077196;28;20485;-70
2022/01/10 00:26:13;;;;;;;16.13;9.10;;;5.90;99.90;;;;;;5077252;28;20474;-69
2022/01/10 00:28:40;;;;;;;19.63;10.10;;;5.90;99.90;;;;;;5076832;28;20454;-70
2022/01/10 00:31:07;;;;;;;16.97;8.93;;;5.90;99.90;;;;;;5077139;28;20802;-70
2022/01/10 00:33:34;;;;;;;12.97;9.20;;;5.80;99.90;;;;;;5076824;28;20516;-70
2022/01/10 00:36:02;;;;;;;15.00;8.60;;;5.80;99.90;;;;;;5077084;28;20466;-70
2022/01/10 00:38:30;;;;;;;15.47;9.20;;;5.80;99.90;;;;;;5076488;28;20462;-70
2022/01/10 00:40:57;;;;;;;18.60;9.70;;;5.80;99.90;;;;;;5077325;28;20454;-69
2022/01/10 00:43:32;;;;;;;18.70;8.60;;;5.80;99.90;;;;;;5076905;28;20454;-70
2022/01/10 00:45:59;;;;;;;14.43;8.90;;;5.80;99.90;;;;;;5076666;28;20466;-69
2022/01/10 00:48:26;;;;;;;14.10;8.00;;;5.70;99.90;;;;;;5076567;28;21009;-70
2022/01/10 00:50:57;;;;;;;15.17;8.37;;;5.70;99.90;;;;;;5076709;28;20458;-71
2022/01/10 00:53:25;;;;;;;18.90;9.67;;;5.70;99.90;;;;;;5076629;28;20924;-70
2022/01/10 00:55:52;;;;;;;22.23;10.13;;;5.70;99.90;;;;;;5076349;28;20532;-71
2022/01/10 00:58:19;;;;;;;21.10;9.33;;;5.70;99.90;;;;;;5076626;28;20454;-69
2022/01/10 01:00:46;;;;;;;14.03;9.40;;;5.70;99.90;;;;;;5077677;28;20926;-70
2022/01/10 01:03:13;;;;;;;19.10;8.90;;;5.70;99.90;;;;;;5078240;28;20458;-69
2022/01/10 01:05:42;;;;;;;15.67;9.50;;;5.70;99.90;;;;;;5080486;28;20461;-70
2022/01/10 01:08:11;;;;;;;15.13;9.43;;;5.80;99.90;;;;;;5079695;28;20447;-69
2022/01/10 01:13:32;;;;;;;13.70;9.40;;;5.80;99.90;;;;;;5084432;28;20430;-70
2022/01/10 01:16:14;;;;;;;19.93;10.13;;;5.80;99.90;;;;;;5084444;28;20503;-70
2022/01/10 01:19:13;;;;;;;22.50;10.00;;;5.80;99.90;;;;;;5076905;28;20490;-70
2022/01/10 01:24:24;;;;;;;20.60;11.10;;;5.70;99.90;;;;;;5075876;28;20752;-69
2022/01/10 01:26:54;;;;;;;16.30;9.10;;;5.70;99.90;;;;;;5076023;28;20833;-69
2022/01/10 01:29:23;;;;;;;19.17;10.37;;;5.80;99.90;;;;;;5075399;28;20450;-69
2022/01/10 01:31:51;;;;;;;20.17;9.60;;;5.80;99.90;;;;;;5075658;28;20469;-69
2022/01/10 01:34:18;;;;;;;13.73;7.77;;;5.80;99.90;;;;;;5075476;28;20469;-70
2022/01/10 01:36:49;;;;;;;15.80;8.83;;;5.80;99.90;;;;;;5076029;28;20461;-70
2022/01/10 01:39:20;;;;;;;15.13;9.13;;;5.80;99.90;;;;;;5075360;28;20505;-70
2022/01/10 01:41:50;;;;;;;17.37;9.17;;;5.80;99.90;;;;;;5075448;28;20767;-69
2022/01/10 01:44:18;;;;;;;19.10;10.20;;;5.80;99.90;;;;;;5075449;28;20458;-69
2022/01/10 01:46:45;;;;;;;14.73;8.87;;;5.80;99.90;;;;;;5075619;28;20493;-69
2022/01/10 01:49:12;;;;;;;19.40;9.53;;;5.80;99.90;;;;;;5074957;28;20489;-69
2022/01/10 01:51:40;;;;;;;16.90;8.77;;;5.80;99.90;;;;;;5075224;28;20454;-69
2022/01/10 01:54:09;;;;;;;15.40;9.37;;;5.80;99.90;;;;;;5075361;28;20759;-70
2022/01/10 01:56:36;;;;;;;20.00;9.10;;;5.80;99.90;;;;;;5075209;28;20458;-70
2022/01/10 01:59:04;;;;;;;18.10;9.60;;;5.80;99.90;;;;;;5075509;28;20454;-70
2022/01/10 02:01:32;;;;;;;19.83;10.10;;;5.80;99.90;;;;;;5075092;28;20473;-70
2022/01/10 02:03:59;;;;;;;15.03;9.40;;;5.80;99.90;;;;;;5075153;28;20454;-69
2022/01/10 02:06:25;;;;;;;16.10;9.70;;;5.80;99.90;;;;;;5075191;28;20482;-69
2022/01/10 02:08:53;;;;;;;18.43;9.77;;;5.70;99.90;;;;;;5075342;28;20821;-69
2022/01/10 02:11:20;;;;;;;16.57;8.90;;;5.70;99.90;;;;;;5075428;28;20481;-70
2022/01/10 02:13:47;;;;;;;15.60;9.63;;;5.70;99.90;;;;;;5075599;28;20462;-70
2022/01/10 02:16:20;;;;;;;15.40;9.27;;;5.80;99.90;;;;;;5076031;28;20791;-70
2022/01/10 02:18:49;;;;;;;16.53;9.70;;;5.70;99.90;;;;;;5074870;28;20465;-70
2022/01/10 02:21:17;;;;;;;17.40;9.60;;;5.80;99.90;;;;;;5075327;28;20819;-70
2022/01/10 02:23:44;;;;;;;14.80;8.70;;;5.80;99.90;;;;;;5075683;28;20829;-70
2022/01/10 02:26:10;;;;;;;13.80;8.97;;;5.90;99.90;;;;;;5074985;28;20454;-72
2022/01/10 02:28:37;;;;;;;12.93;8.57;;;5.90;99.90;;;;;;5075003;28;20454;-70
2022/01/10 02:31:05;;;;;;;16.63;8.50;;;5.90;99.90;;;;;;5075374;28;20469;-70
2022/01/10 02:33:33;;;;;;;11.53;8.47;;;5.90;99.90;;;;;;5075015;28;20560;-69
2022/01/10 02:36:08;;;;;;;14.57;8.53;;;5.80;99.90;;;;;;5075003;28;20458;-70
2022/01/10 02:38:45;;;;;;;18.60;8.90;;;5.80;99.90;;;;;;5075006;28;20442;-70
2022/01/10 02:41:12;;;;;;;21.90;8.43;;;5.80;99.90;;;;;;5074946;28;20524;-70
2022/01/10 02:43:39;;;;;;;21.23;9.10;;;5.70;99.90;;;;;;5074733;28;20906;-70
2022/01/10 02:46:06;;;;;;;19.13;8.43;;;5.70;99.90;;;;;;5074829;28;20469;-69
2022/01/10 02:48:32;;;;;;;16.90;8.60;;;5.70;99.90;;;;;;5073965;28;20936;-70
2022/01/10 02:50:59;;;;;;;17.30;8.40;;;5.70;99.90;;;;;;5074698;28;20462;-70
2022/01/10 02:53:25;;;;;;;16.83;8.47;;;5.70;99.90;;;;;;5074769;28;20784;-70
2022/01/10 02:55:53;;;;;;;13.80;9.50;;;5.70;99.90;;;;;;5078148;28;20898;-70
2022/01/10 02:58:22;;;;;;;12.70;8.60;;;5.70;99.90;;;;;;5078825;28;20454;-69
2022/01/10 03:00:48;;;;;;;17.83;9.10;;;5.80;99.90;;;;;;5078469;28;20454;-70
2022/01/10 03:03:15;;;;;;;17.30;8.27;;;5.80;99.90;;;;;;5078578;28;20537;-70
2022/01/10 03:05:42;;;;;;;15.43;8.67;;;5.80;99.90;;;;;;5078930;28;20533;-70
2022/01/10 03:08:12;;;;;;;17.23;7.87;;;5.80;99.90;;;;;;5078247;28;20481;-70
2022/01/10 03:10:41;;;;;;;20.90;8.43;;;5.80;99.90;;;;;;5078679;28;20454;-70
2022/01/10 03:13:11;;;;;;;12.90;7.07;;;5.80;99.90;;;;;;5078382;28;20462;-70
2022/01/10 03:15:37;;;;;;;14.73;7.90;;;5.80;99.90;;;;;;5078248;28;20907;-70
2022/01/10 03:18:04;;;;;;;14.47;7.70;;;5.80;99.90;;;;;;5078283;28;20453;-70
2022/01/10 03:20:31;;;;;;;18.93;8.30;;;5.90;99.90;;;;;;5078219;28;20458;-69
2022/01/10 03:22:57;;;;;;;19.67;9.27;;;5.90;99.90;;;;;;5077915;28;20458;-69
2022/01/10 03:25:24;;;;;;;14.93;8.13;;;5.80;99.90;;;;;;5078584;28;20464;-70
2022/01/10 03:27:51;;;;;;;17.13;7.40;;;5.90;99.90;;;;;;5078272;28;20532;-69
2022/01/10 03:30:19;;;;;;;15.70;7.70;;;5.80;99.90;;;;;;5078144;28;20453;-69
2022/01/10 03:32:48;;;;;;;22.57;8.50;;;5.80;99.90;;;;;;5077817;28;20965;-70
2022/01/10 03:35:16;;;;;;;15.87;8.33;;;5.80;99.90;;;;;;5078126;28;20458;-70
2022/01/10 03:37:43;;;;;;;19.97;9.10;;;5.90;99.90;;;;;;5078613;28;20450;-69
2022/01/10 03:40:11;;;;;;;11.30;8.00;;;5.90;99.90;;;;;;5078629;28;20454;-69
2022/01/10 03:42:39;;;;;;;14.90;8.50;;;5.90;99.90;;;;;;5078388;28;20450;-69
2022/01/10 03:45:09;;;;;;;15.00;8.60;;;5.90;99.90;;;;;;5078105;28;20809;-70
2022/01/10 03:47:37;;;;;;;15.77;7.93;;;5.90;99.90;;;;;;5077875;28;20493;-70
2022/01/10 03:50:06;;;;;;;16.07;8.60;;;5.90;99.90;;;;;;5077359;28;20469;-70
2022/01/10 03:52:34;;;;;;;19.70;8.57;;;5.90;99.90;;;;;;5077589;28;20458;-70
2022/01/10 03:55:03;;;;;;;13.07;8.30;;;5.90;99.90;;;;;;5077189;28;20902;-70
2022/01/10 03:57:30;;;;;;;16.00;8.20;;;6.00;99.90;;;;;;5076678;28;20474;-70
2022/01/10 03:59:57;;;;;;;17.40;10.13;;;6.00;99.90;;;;;;5077281;28;20458;-69
2022/01/10 04:02:28;;;;;;;18.13;8.87;;;6.00;99.90;;;;;;5076445;28;20519;-70
2022/01/10 04:04:58;;;;;;;16.70;9.40;;;6.00;99.90;;;;;;5075965;28;20537;-69
2022/01/10 04:07:26;;;;;;;19.20;10.87;;;6.00;99.90;;;;;;5076211;28;20489;-69
2022/01/10 04:09:53;;;;;;;19.83;10.20;;;5.90;99.90;;;;;;5076199;28;20811;-70
2022/01/10 04:12:21;;;;;;;20.57;11.20;;;5.90;99.90;;;;;;5076586;28;20461;-69
2022/01/10 04:14:47;;;;;;;17.43;11.63;;;6.00;99.90;;;;;;5076631;28;20462;-69
2022/01/10 04:17:14;;;;;;;17.23;10.30;;;6.00;99.90;;;;;;5076124;28;20779;-69
2022/01/10 04:19:41;;;;;;;21.63;10.30;;;6.00;99.90;;;;;;5076113;28;20469;-70
2022/01/10 04:22:11;;;;;;;20.30;10.57;;;6.00;99.90;;;;;;5076425;28;20469;-71
2022/01/10 04:24:37;;;;;;;16.10;9.33;;;6.00;99.90;;;;;;5076092;28;20453;-70
2022/01/10 04:27:04;;;;;;;21.40;10.27;;;6.00;99.90;;;;;;5075538;28;20950;-70
2022/01/10 04:29:31;;;;;;;22.30;9.00;;;6.00;99.90;;;;;;5075884;28;20906;-71
2022/01/10 04:32:00;;;;;;;17.90;8.10;;;6.00;99.90;;;;;;5076095;28;20520;-71
2022/01/10 04:34:28;;;;;;;18.30;9.87;;;5.90;99.90;;;;;;5075795;28;20458;-71
2022/01/10 04:36:56;;;;;;;15.30;8.50;;;5.90;99.90;;;;;;5076776;28;20538;-70
2022/01/10 04:39:24;;;;;;;15.70;8.30;;;5.90;99.90;;;;;;5076671;28;20533;-71
2022/01/10 04:41:51;;;;;;;26.37;8.77;;;5.90;99.90;;;;;;5076374;28;20997;-71
2022/01/10 04:44:18;;;;;;;20.33;9.53;;;5.90;99.90;;;;;;5075292;28;20899;-71
2022/01/10 04:46:45;;;;;;;22.07;9.60;;;5.90;99.90;;;;;;5076195;28;20466;-70
2022/01/10 04:49:21;;;;;;;15.90;8.50;;;5.90;99.90;;;;;;5032466;28;1259854;-71
2022/01/10 04:51:48;;;;;;;17.27;9.80;;;5.90;99.90;;;;;;5076254;28;20575;-69
2022/01/10 04:54:15;;;;;;;22.13;10.13;;;5.90;99.90;;;;;;5076397;28;20465;-70
2022/01/10 04:56:43;;;;;;;21.13;10.30;;;5.90;99.90;;;;;;5076792;28;20825;-70
2022/01/10 04:59:10;;;;;;;22.93;9.50;;;6.00;99.90;;;;;;5076306;28;20454;-70
2022/01/10 05:01:37;;;;;;;15.93;10.40;;;6.00;99.90;;;;;;5076390;28;20469;-70
2022/01/10 05:04:06;;;;;;;17.83;11.23;;;6.00;99.90;;;;;;5076259;28;20549;-71
2022/01/10 05:06:32;;;;;;;16.50;12.27;;;6.00;99.90;;;;;;5076213;28;20458;-71
2022/01/10 05:09:00;;;;;;;18.20;10.73;;;6.00;99.90;;;;;;5075957;28;20926;-70
2022/01/10 05:11:28;;;;;;;20.97;12.27;;;6.00;99.90;;;;;;5076273;28;20475;-70
2022/01/10 05:13:58;;;;;;;24.87;10.80;;;6.00;99.90;;;;;;5076727;28;20748;-70
2022/01/10 05:16:24;;;;;;;19.40;11.20;;;6.00;99.90;;;;;;5076032;28;20462;-70
2022/01/10 05:18:51;;;;;;;17.57;10.70;;;6.00;99.90;;;;;;5075382;28;20451;-70
2022/01/10 05:21:20;;;;;;;16.70;9.03;;;6.00;99.90;;;;;;5075901;28;20466;-69
2022/01/10 05:23:47;;;;;;;19.93;10.10;;;6.00;99.90;;;;;;5076115;28;20488;-69
2022/01/10 05:26:13;;;;;;;22.27;10.07;;;6.00;99.90;;;;;;5076076;28;20554;-71
2022/01/10 05:28:40;;;;;;;17.93;10.57;;;6.00;99.90;;;;;;5075382;28;20962;-69
2022/01/10 05:31:08;;;;;;;20.80;10.10;;;6.00;99.90;;;;;;5075974;28;20466;-70
2022/01/10 05:33:35;;;;;;;22.07;9.73;;;5.90;99.90;;;;;;5076339;28;20749;-70
2022/01/10 05:36:02;;;;;;;17.60;9.87;;;5.90;99.90;;;;;;5075671;28;20494;-70
2022/01/10 05:38:30;;;;;;;18.43;10.07;;;6.00;99.90;;;;;;5075351;28;20450;-71
2022/01/10 05:40:56;;;;;;;16.60;9.70;;;6.00;99.90;;;;;;5075709;28;20454;-70
2022/01/10 05:43:23;;;;;;;18.93;10.97;;;5.90;99.90;;;;;;5075100;28;20864;-70
2022/01/10 05:45:50;;;;;;;16.07;11.00;;;5.90;99.90;;;;;;5075631;28;20467;-70
2022/01/10 05:48:25;;;;;;;19.53;10.70;;;5.90;99.90;;;;;;5075022;28;20681;-70
2022/01/10 05:50:52;;;;;;;21.53;11.20;;;5.90;99.90;;;;;;5075539;28;20445;-69
2022/01/10 05:53:19;;;;;;;16.80;11.00;;;6.00;99.90;;;;;;5075088;28;20451;-70
2022/01/10 05:55:47;;;;;;;23.63;12.03;;;5.90;99.90;;;;;;5075268;28;20454;-69
2022/01/10 05:58:14;;;;;;;24.53;12.50;;;6.00;99.90;;;;;;5075201;28;20462;-70
2022/01/10 06:00:41;;;;;;;20.03;11.17;;;6.00;99.90;;;;;;5075039;28;20458;-70
2022/01/10 06:03:08;;;;;;;17.87;11.40;;;6.00;99.90;;;;;;5074780;28;20930;-70
2022/01/10 06:05:36;;;;;;;23.30;12.80;;;6.00;99.90;;;;;;5074798;28;20458;-69
2022/01/10 06:08:06;;;;;;;22.03;11.50;;;6.00;99.90;;;;;;5075231;28;20481;-69
2022/01/10 06:10:34;;;;;;;20.70;11.70;;;6.00;99.90;;;;;;5075147;28;20442;-69
2022/01/10 06:13:00;;;;;;;23.03;11.37;;;6.00;99.90;;;;;;5074933;28;20535;-70
2022/01/10 06:15:27;;;;;;;16.37;12.07;;;6.00;99.90;;;;;;5075124;28;20471;-70
2022/01/10 06:17:54;;;;;;;24.10;13.13;;;6.00;99.90;;;;;;5075024;28;20455;-70
2022/01/10 06:20:22;;;;;;;25.43;12.47;;;6.00;99.90;;;;;;5075407;28;20458;-71
2022/01/10 06:22:50;;;;;;;21.30;12.77;;;6.00;99.90;;;;;;5075132;28;20473;-70
2022/01/10 06:25:19;;;;;;;21.83;10.40;;;6.10;99.90;;;;;;5075336;28;20856;-70
2022/01/10 06:27:46;;;;;;;16.80;11.00;;;6.00;99.90;;;;;;5074681;28;20497;-70
2022/01/10 06:30:13;;;;;;;17.40;10.70;;;6.10;99.90;;;;;;5074503;28;20466;-70
2022/01/10 06:32:40;;;;;;;17.50;11.30;;;6.10;99.90;;;;;;5074803;28;20462;-70
2022/01/10 06:35:07;;;;;;;20.27;10.50;;;6.10;99.90;;;;;;5074485;28;20470;-70
2022/01/10 06:37:36;;;;;;;15.53;9.43;;;6.10;99.90;;;;;;5074885;28;20465;-70
2022/01/10 06:40:05;;;;;;;16.73;8.40;;;6.10;99.90;;;;;;5074839;28;20474;-70
2022/01/10 06:42:32;;;;;;;15.20;8.43;;;6.10;99.90;;;;;;5074344;28;20511;-70
2022/01/10 06:44:59;;;;;;;15.17;8.07;;;6.10;99.90;;;;;;5074325;28;20492;-71
2022/01/10 06:47:26;;;;;;;14.60;9.83;;;6.00;99.90;;;;;;5074350;28;20517;-69
2022/01/10 06:49:52;;;;;;;13.17;8.23;;;6.00;99.90;;;;;;5074494;28;20445;-70
2022/01/10 06:52:19;;;;;;;17.63;9.43;;;6.10;99.90;;;;;;5074514;28;20520;-70
2022/01/10 06:54:49;;;;;;;21.90;8.33;;;6.10;99.90;;;;;;5074273;28;20829;-70
2022/01/10 06:57:17;;;;;;;14.27;7.83;;;6.20;99.90;;;;;;5074931;28;20465;-70
2022/01/10 06:59:44;;;;;;;16.17;8.70;;;6.20;99.90;;;;;;5074352;28;20460;-71
2022/01/10 07:02:10;;;;;;;14.43;8.07;;;6.20;99.90;;;;;;5074786;28;20484;-70
2022/01/10 07:04:38;;;;;;;13.47;7.60;;;6.20;99.90;;;;;;5074855;28;20469;-70
2022/01/10 07:07:06;;;;;;;16.07;9.40;;;6.20;99.90;;;;;;5074672;28;20939;-71
2022/01/10 07:09:33;;;;;;;15.57;9.33;;;6.20;99.90;;;;;;5074849;28;20486;-69
2022/01/10 07:11:59;;;;;;;18.20;9.57;;;6.30;99.90;;;;;;5074494;28;20587;-70
2022/01/10 07:14:29;;;;;;;16.93;9.13;;;6.30;99.90;;;;;;5074688;28;20754;-71
2022/01/10 07:16:55;;;;;;;14.37;8.60;;;6.30;99.90;;;;;;5074414;28;20459;-71
2022/01/10 07:19:23;;;;;;;16.83;7.73;;;6.20;99.90;;;;;;5073972;28;20450;-71
2022/01/10 07:21:49;;;;;;;13.03;7.40;;;6.20;99.90;;;;;;5074477;28;20833;-70
2022/01/10 07:24:17;;;;;;;12.43;7.70;;;6.20;99.90;;;;;;5074185;28;20466;-70
2022/01/10 07:26:44;;;;;;;15.17;7.43;;;6.10;99.90;;;;;;5073846;28;20454;-70
2022/01/10 07:29:11;;;;;;;14.47;8.30;;;6.10;99.90;;;;;;5073616;28;20508;-70
2022/01/10 07:31:40;;;;;;;18.27;8.90;;;6.10;99.90;;;;;;5074262;28;20462;-70
2022/01/10 07:34:11;;;;;;;14.70;8.57;;;6.10;99.90;;;;;;5073883;28;20454;-70
2022/01/10 07:36:38;;;;;;;15.00;8.07;;;6.10;99.90;;;;;;5074366;28;20474;-71
2022/01/10 07:39:05;;;;;;;15.17;8.43;;;6.10;99.90;;;;;;5074000;28;20454;-70
2022/01/10 07:41:32;;;;;;;17.27;9.83;;;6.10;99.90;;;;;;5076763;28;20454;-71
2022/01/10 07:43:59;;;;;;;14.40;9.60;;;6.10;99.90;;;;;;5077611;28;20454;-70
2022/01/10 07:46:25;;;;;;;15.37;9.10;;;6.00;99.90;;;;;;5077201;28;20960;-71
2022/01/10 07:48:54;;;;;;;17.73;9.20;;;6.00;99.90;;;;;;5077711;28;20489;-70
2022/01/10 07:51:22;;;;;;;17.27;9.60;;;6.00;99.90;;;;;;5078363;28;20458;-70
2022/01/10 07:53:49;;;;;;;17.87;9.13;;;6.00;99.90;;;;;;5077691;28;20458;-70
2022/01/10 07:56:15;;;;;;;19.17;9.87;;;6.00;99.90;;;;;;5077641;28;20786;-70
2022/01/10 07:58:42;;;;;;;15.80;10.47;;;6.00;99.90;;;;;;5077644;28;20516;-71
2022/01/10 08:01:09;;;;;;;22.63;11.10;;;6.00;99.90;;;;;;5077775;28;20465;-70
2022/01/10 08:03:37;;;;;;;16.10;10.90;;;6.10;99.90;;;;;;5077743;28;20822;-70
2022/01/10 08:06:05;;;;;;;17.67;10.27;;;6.10;99.90;;;;;;5077340;28;20795;-70
2022/01/10 08:08:33;;;;;;;18.00;11.20;;;6.10;99.90;;;;;;5077191;28;20488;-70
2022/01/10 08:11:00;;;;;;;20.10;11.97;;;6.20;99.90;;;;;;5077399;28;20544;-69
2022/01/10 08:13:27;;;;;;;19.20;10.30;;;6.20;99.90;;;;;;5076890;28;20461;-70
2022/01/10 08:15:56;;;;;;;26.67;11.80;;;6.20;99.90;;;;;;5077514;28;20462;-69
2022/01/10 08:18:23;;;;;;;32.53;12.90;;;6.20;99.90;;;;;;5077796;28;20461;-71
2022/01/10 08:20:50;;;;;;;22.53;12.10;;;6.20;99.90;;;;;;5076986;28;20454;-70
2022/01/10 08:23:18;;;;;;;19.77;11.57;;;6.20;99.90;;;;;;5077033;28;20465;-70
2022/01/10 08:25:44;;;;;;;20.20;11.30;;;6.20;99.90;;;;;;5077311;28;20462;-70
2022/01/10 08:28:11;;;;;;;22.33;11.20;;;6.10;99.90;;;;;;5076770;28;20775;-70
2022/01/10 08:30:38;;;;;;;22.50;11.17;;;6.00;99.90;;;;;;5076786;28;20466;-71
2022/01/10 08:33:06;;;;;;;18.70;11.43;;;6.00;99.90;;;;;;5077253;28;20465;-72
2022/01/10 08:35:33;;;;;;;20.67;11.73;;;6.00;99.90;;;;;;5076918;28;20469;-70
2022/01/10 08:38:00;;;;;;;26.73;10.87;;;6.00;99.90;;;;;;5076597;28;20458;-70
2022/01/10 08:40:29;;;;;;;18.07;11.27;;;6.00;99.90;;;;;;5076593;28;20568;-70
2022/01/10 08:42:56;;;;;;;18.10;11.57;;;6.00;99.90;;;;;;5076318;28;20795;-71
2022/01/10 08:45:22;;;;;;;16.43;10.33;;;6.00;99.90;;;;;;5076577;28;20462;-69
2022/01/10 08:47:49;;;;;;;24.83;10.77;;;6.00;99.90;;;;;;5076159;28;20478;-71
2022/01/10 08:50:16;;;;;;;23.13;12.03;;;6.00;99.90;;;;;;5076176;28;20486;-70
2022/01/10 08:52:43;;;;;;;22.50;11.50;;;6.00;99.90;;;;;;5075282;28;20461;-70
2022/01/10 08:55:11;;;;;;;21.53;10.27;;;6.10;99.90;;;;;;5076476;28;20484;-70
2022/01/10 08:57:39;;;;;;;15.43;11.03;;;6.10;99.90;;;;;;5076220;28;20469;-70
2022/01/10 09:00:11;;;;;;;29.00;10.90;;;6.10;99.90;;;;;;5076296;28;20455;-70
2022/01/10 09:02:37;;;;;;;19.97;10.30;;;6.10;99.90;;;;;;5076436;28;20443;-70
2022/01/10 09:05:05;;;;;;;18.20;9.83;;;6.10;99.90;;;;;;5075743;28;20520;-70
2022/01/10 09:07:32;;;;;;;18.27;9.73;;;6.10;99.90;;;;;;5076342;28;20454;-70
2022/01/10 09:09:59;;;;;;;21.13;9.90;;;6.10;99.90;;;;;;5075873;28;20992;-72
2022/01/10 09:12:26;;;;;;;20.83;10.23;;;6.10;99.90;;;;;;5075992;28;20457;-70
2022/01/10 09:14:54;;;;;;;18.80;9.50;;;6.20;99.90;;;;;;5075770;28;20907;-69
2022/01/10 09:17:21;;;;;;;21.10;9.63;;;6.20;99.90;;;;;;5077069;28;20476;-71
2022/01/10 09:19:51;;;;;;;19.77;9.60;;;6.10;99.90;;;;;;5076038;28;20462;-71
2022/01/10 09:22:18;;;;;;;19.80;9.10;;;6.10;99.90;;;;;;5076219;28;20783;-70
2022/01/10 09:24:46;;;;;;;23.27;10.17;;;6.10;99.90;;;;;;5075807;28;20462;-70
2022/01/10 09:27:13;;;;;;;18.43;9.33;;;6.10;99.90;;;;;;5076165;28;20541;-70
2022/01/10 09:29:41;;;;;;;18.60;9.73;;;6.20;99.90;;;;;;5075185;28;20486;-70
2022/01/10 09:32:09;;;;;;;20.43;9.70;;;6.20;99.90;;;;;;5075545;28;20462;-70
2022/01/10 09:34:36;;;;;;;19.37;10.67;;;6.20;99.90;;;;;;5075681;28;20458;-70
2022/01/10 09:37:04;;;;;;;17.60;10.73;;;6.20;99.90;;;;;;5075933;28;20834;-71
2022/01/10 09:39:31;;;;;;;16.17;9.43;;;6.20;99.90;;;;;;5075581;28;20450;-70
2022/01/10 09:41:58;;;;;;;17.17;10.13;;;6.20;99.90;;;;;;5075103;28;20951;-70
2022/01/10 09:44:25;;;;;;;18.40;9.80;;;6.20;99.90;;;;;;5076353;28;20466;-70
2022/01/10 09:46:55;;;;;;;17.63;9.90;;;6.20;99.90;;;;;;5075505;28;20860;-71
2022/01/10 09:49:24;;;;;;;24.43;12.77;;;6.30;99.90;;;;;;5075934;28;20504;-72
2022/01/10 09:51:50;;;;;;;18.20;9.30;;;6.30;99.90;;;;;;5075878;28;20458;-71
2022/01/10 09:54:17;;;;;;;20.57;9.57;;;6.30;99.90;;;;;;5075723;28;20569;-70
2022/01/10 09:56:47;;;;;;;14.27;8.67;;;6.30;99.90;;;;;;5075992;28;20725;-70
2022/01/10 09:59:15;;;;;;;16.90;9.30;;;6.30;99.90;;;;;;5075495;28;20519;-70
2022/01/10 10:01:43;;;;;;;15.97;8.90;;;6.30;99.90;;;;;;5075358;28;20529;-70
2022/01/10 10:04:12;;;;;;;16.63;8.50;;;6.30;99.90;;;;;;5074936;28;20454;-71
2022/01/10 10:06:41;;;;;;;18.37;9.50;;;6.30;99.90;;;;;;5075752;28;20753;-70
2022/01/10 10:09:10;;;;;;;20.40;10.60;;;6.30;99.90;;;;;;5075083;28;20484;-71
2022/01/10 10:11:38;;;;;;;19.33;10.47;;;6.30;99.90;;;;;;5075572;28;20462;-71
2022/01/10 10:14:07;;;;;;;15.63;9.03;;;6.40;99.90;;;;;;5074729;28;20458;-71
2022/01/10 10:16:36;;;;;;;15.50;9.50;;;6.40;99.90;;;;;;5074690;28;20969;-71
2022/01/10 10:19:04;;;;;;;30.40;16.00;;;6.40;99.90;;;;;;5075120;28;20458;-71
2022/01/10 10:21:32;;;;;;;23.80;11.87;;;6.40;99.90;;;;;;5075127;28;20459;-72
2022/01/10 10:24:03;;;;;;;17.07;9.73;;;6.40;99.90;;;;;;5074826;28;20465;-72
2022/01/10 10:26:33;;;;;;;15.67;11.03;;;6.40;99.90;;;;;;5075473;28;20500;-70
2022/01/10 10:29:01;;;;;;;15.70;9.43;;;6.50;99.90;;;;;;5075989;28;20886;-71
2022/01/10 10:31:30;;;;;;;18.93;8.67;;;6.50;99.90;;;;;;5075206;28;20477;-70
2022/01/10 10:33:57;;;;;;;12.67;8.20;;;6.50;99.90;;;;;;5075074;28;20813;-70
2022/01/10 10:36:31;;;;;;;11.03;7.97;;;6.50;99.90;;;;;;5074589;28;20515;-70
2022/01/10 10:38:58;;;;;;;21.23;8.70;;;6.40;99.90;;;;;;5074906;28;20427;-71
2022/01/10 10:41:26;;;;;;;13.43;9.70;;;6.40;99.90;;;;;;5074931;28;20462;-70
2022/01/10 10:43:54;;;;;;;15.23;9.23;;;6.30;99.90;;;;;;5076332;28;20520;-69
2022/01/10 10:46:27;;;;;;;13.50;9.63;;;6.30;99.90;;;;;;5079100;28;20465;-71
2022/01/10 10:49:00;;;;;;;15.77;9.10;;;6.30;99.90;;;;;;5079077;28;20485;-70
2022/01/10 10:51:31;;;;;;;16.37;9.20;;;6.20;99.90;;;;;;5076811;28;20537;-70
2022/01/10 10:54:02;;;;;;;19.17;9.47;;;6.20;99.90;;;;;;5076626;28;20515;-71
2022/01/10 10:56:35;;;;;;;13.83;8.30;;;6.20;99.90;;;;;;5078499;28;20453;-70
2022/01/10 10:59:03;;;;;;;14.10;8.13;;;6.30;99.90;;;;;;5077008;28;20540;-70
2022/01/10 11:01:31;;;;;;;12.70;8.33;;;6.30;99.90;;;;;;5076033;28;20458;-71
2022/01/10 11:03:58;;;;;;;14.87;8.80;;;6.30;99.90;;;;;;5076458;28;20919;-71
2022/01/10 11:06:28;;;;;;;13.90;7.70;;;6.20;99.90;;;;;;5076273;28;20457;-71
2022/01/10 11:08:56;;;;;;;14.83;9.40;;;6.30;99.90;;;;;;5075094;28;20438;-71
2022/01/10 11:11:23;;;;;;;14.03;8.43;;;6.30;99.90;;;;;;5074328;28;20469;-71
2022/01/10 11:13:55;;;;;;;18.57;11.80;;;6.30;99.90;;;;;;5074119;28;20922;-70
2022/01/10 11:16:22;;;;;;;13.60;9.60;;;6.40;99.90;;;;;;5077057;28;20909;-70
2022/01/10 11:18:50;;;;;;;15.83;8.27;;;6.50;99.90;;;;;;5078407;28;20454;-70
2022/01/10 11:21:18;;;;;;;17.33;7.97;;;6.50;99.90;;;;;;5078591;28;20465;-70
2022/01/10 11:23:46;;;;;;;15.23;8.13;;;6.60;99.90;;;;;;5078645;28;20462;-70
2022/01/10 11:26:15;;;;;;;16.03;8.17;;;6.60;99.90;;;;;;5080520;28;20458;-69
2022/01/10 11:28:49;;;;;;;17.03;7.67;;;6.70;99.90;;;;;;5079665;28;20539;-70
2022/01/10 11:31:22;;;;;;;10.00;7.60;;;6.80;99.90;;;;;;5079980;28;20466;-71
2022/01/10 11:33:51;;;;;;;13.17;7.40;;;6.90;99.90;;;;;;5078660;28;20500;-71
2022/01/10 11:36:21;;;;;;;11.40;7.60;;;7.00;99.90;;;;;;5078396;28;20929;-70
2022/01/10 11:38:50;;;;;;;10.07;6.50;;;7.00;99.90;;;;;;5079798;28;20465;-71
2022/01/10 11:41:20;;;;;;;10.43;7.57;;;7.00;99.90;;;;;;5078062;28;20575;-70
2022/01/10 11:43:50;;;;;;;16.53;8.20;;;7.10;99.90;;;;;;5077827;28;20454;-72
2022/01/10 11:46:28;;;;;;;15.57;7.93;;;7.10;99.90;;;;;;5078029;28;20438;-69
2022/01/10 11:48:58;;;;;;;9.20;7.30;;;7.10;99.90;;;;;;5077539;28;20820;-70
2022/01/10 11:51:29;;;;;;;11.33;8.17;;;7.10;99.90;;;;;;5078327;28;20453;-70
2022/01/10 11:54:10;;;;;;;7.37;6.00;;;7.20;99.90;;;;;;5078112;28;20442;-70
2022/01/10 11:56:39;;;;;;;18.80;10.90;;;7.20;99.90;;;;;;5077303;28;20536;-70
2022/01/10 11:59:09;;;;;;;16.07;11.20;;;7.20;99.90;;;;;;5077844;28;20910;-70
2022/01/10 12:01:39;;;;;;;7.47;5.53;;;7.30;99.90;;;;;;5077546;28;20438;-71
2022/01/10 12:04:06;;;;;;;7.00;5.57;;;7.30;99.90;;;;;;5078887;28;20542;-71
2022/01/10 12:06:33;;;;;;;6.00;4.80;;;7.40;99.90;;;;;;5078471;28;21010;-70
2022/01/10 12:09:00;;;;;;;7.40;4.63;;;7.40;99.90;;;;;;5077346;28;20537;-71
2022/01/10 12:11:28;;;;;;;10.40;4.80;;;7.50;99.90;;;;;;5077700;28;20478;-71
2022/01/10 12:13:56;;;;;;;6.73;4.93;;;7.40;99.90;;;;;;5077505;28;20465;-69
2022/01/10 12:16:24;;;;;;;5.73;4.60;;;7.40;99.90;;;;;;5077383;28;20469;-70
2022/01/10 12:18:52;;;;;;;7.60;5.27;;;7.40;99.90;;;;;;5077622;28;20458;-70
2022/01/10 12:21:19;;;;;;;6.90;5.37;;;7.40;99.90;;;;;;5076889;28;20762;-70
2022/01/10 12:23:48;;;;;;;9.27;4.73;;;7.40;99.90;;;;;;5076672;28;20470;-69
2022/01/10 12:26:18;;;;;;;6.80;4.97;;;7.40;99.90;;;;;;5076539;28;20926;-70
2022/01/10 12:28:46;;;;;;;8.00;4.80;;;7.30;99.90;;;;;;5076867;28;20458;-70
2022/01/10 12:31:13;;;;;;;7.50;4.80;;;7.30;99.90;;;;;;5077026;28;20474;-69
2022/01/10 12:33:41;;;;;;;4.57;4.13;;;7.30;99.90;;;;;;5077292;28;20454;-70
2022/01/10 12:36:09;;;;;;;7.50;4.27;;;7.30;99.90;;;;;;5078011;28;20909;-70
2022/01/10 12:38:36;;;;;;;5.03;4.43;;;7.20;99.90;;;;;;5077863;28;20494;-70
2022/01/10 12:41:03;;;;;;;20.80;15.13;;;7.20;99.90;;;;;;5077170;28;20925;-70
2022/01/10 12:43:29;;;;;;;7.73;5.90;;;7.20;99.90;;;;;;5077097;28;20471;-70
2022/01/10 12:45:56;;;;;;;6.43;4.77;;;7.20;99.90;;;;;;5077022;28;20530;-71
2022/01/10 12:48:25;;;;;;;9.40;5.20;;;7.20;99.90;;;;;;5076364;28;20801;-72
2022/01/10 12:50:54;;;;;;;8.97;5.37;;;7.20;99.90;;;;;;5076933;28;20510;-71
2022/01/10 12:53:23;;;;;;;8.20;4.57;;;7.20;99.90;;;;;;5076619;28;20490;-70
2022/01/10 12:55:50;;;;;;;9.33;5.27;;;7.20;99.90;;;;;;5076212;28;20473;-71